sensor_id;sensor_type;location;lat;lon;timestamp;pressure;altitude;pressure_sealevel;temperature;humidity
28167;BME280;15455;53.376;-6.262;2023-05-01T00:01:15;101576.72;;;10.19;100.00
28167;BME280;15455;53.376;-6.262;2023-05-01T00:04:00;101579.38;;;10.24;100.00
28167;BME280;15455;53.376;-6.262;2023-05-01T00:06:46;101576.78;;;10.24;100.00
28167;BME280;15455;53.376;-6.262;2023-05-01T00:09:32;101577.69;;;10.26;100.00
28167;BME280;15455;53.376;-6.262;2023-05-01T00:12:18;101576.88;;;10.30;100.00
28167;BME280;15455;53.376;-6.262;2023-05-01T00:15:04;101582.97;;;10.32;100.00
28167;BME280;15455;53.376;-6.262;2023-05-01T00:17:50;101587.34;;;10.33;100.00
28167;BME280;15455;53.376;-6.262;2023-05-01T00:20:35;101581.31;;;10.34;100.00
28167;BME280;15455;53.376;-6.262;2023-05-01T00:23:21;101575.22;;;10.35;100.00
28167;BME280;15455;53.376;-6.262;2023-05-01T00:26:06;101580.44;;;10.37;100.00
28167;BME280;15455;53.376;-6.262;2023-05-01T00:28:52;101579.56;;;10.35;100.00
28167;BME280;15455;53.376;-6.262;2023-05-01T00:31:38;101574.34;;;10.35;100.00
28167;BME280;15455;53.376;-6.262;2023-05-01T00:34:25;101574.28;;;10.33;100.00
28167;BME280;15455;53.376;-6.262;2023-05-01T00:37:11;101563.84;;;10.32;100.00
28167;BME280;15455;53.376;-6.262;2023-05-01T00:39:56;101558.59;;;10.29;100.00
28167;BME280;15455;53.376;-6.262;2023-05-01T00:42:42;101562.91;;;10.26;100.00
28167;BME280;15455;53.376;-6.262;2023-05-01T00:45:28;101552.44;;;10.23;100.00
28167;BME280;15455;53.376;-6.262;2023-05-01T00:48:13;101558.47;;;10.19;100.00
28167;BME280;15455;53.376;-6.262;2023-05-01T00:50:59;101558.41;;;10.13;100.00
28167;BME280;15455;53.376;-6.262;2023-05-01T00:53:46;101561.78;;;10.07;100.00
28167;BME280;15455;53.376;-6.262;2023-05-01T00:56:31;101566.16;;;10.07;100.00
28167;BME280;15455;53.376;-6.262;2023-05-01T00:59:17;101560.97;;;10.10;100.00
28167;BME280;15455;53.376;-6.262;2023-05-01T01:02:02;101560.06;;;10.09;100.00
28167;BME280;15455;53.376;-6.262;2023-05-01T01:04:47;101565.34;;;10.11;100.00
28167;BME280;15455;53.376;-6.262;2023-05-01T01:07:49;101562.75;;;10.13;100.00
28167;BME280;15455;53.376;-6.262;2023-05-01T01:10:48;101562.63;;;10.05;100.00
28167;BME280;15455;53.376;-6.262;2023-05-01T01:13:46;101558.22;;;10.01;100.00
28167;BME280;15455;53.376;-6.262;2023-05-01T01:16:45;101559.94;;;9.97;100.00
28167;BME280;15455;53.376;-6.262;2023-05-01T01:22:46;101558.84;;;9.80;100.00
28167;BME280;15455;53.376;-6.262;2023-05-01T01:29:16;101555.16;;;9.65;100.00
28167;BME280;15455;53.376;-6.262;2023-05-01T01:35:35;101564.91;;;9.79;100.00
28167;BME280;15455;53.376;-6.262;2023-05-01T01:38:29;101560.63;;;9.82;100.00
28167;BME280;15455;53.376;-6.262;2023-05-01T01:41:25;101567.66;;;9.88;100.00
28167;BME280;15455;53.376;-6.262;2023-05-01T01:44:24;101565.94;;;9.91;100.00
28167;BME280;15455;53.376;-6.262;2023-05-01T01:47:13;101563.38;;;9.95;100.00
28167;BME280;15455;53.376;-6.262;2023-05-01T01:50:02;101559.94;;;9.97;100.00
28167;BME280;15455;53.376;-6.262;2023-05-01T01:52:50;101566.03;;;9.99;100.00
28167;BME280;15455;53.376;-6.262;2023-05-01T01:55:39;101565.19;;;10.02;100.00
28167;BME280;15455;53.376;-6.262;2023-05-01T01:58:26;101560.00;;;10.03;100.00
28167;BME280;15455;53.376;-6.262;2023-05-01T02:01:14;101558.31;;;10.05;100.00
28167;BME280;15455;53.376;-6.262;2023-05-01T02:04:02;101557.44;;;10.08;100.00
28167;BME280;15455;53.376;-6.262;2023-05-01T02:06:50;101545.31;;;10.08;100.00
28167;BME280;15455;53.376;-6.262;2023-05-01T02:09:36;101549.69;;;10.11;100.00
28167;BME280;15455;53.376;-6.262;2023-05-01T02:12:24;101545.38;;;10.15;100.00
28167;BME280;15455;53.376;-6.262;2023-05-01T02:15:11;101543.63;;;10.15;100.00
28167;BME280;15455;53.376;-6.262;2023-05-01T02:18:01;101539.28;;;10.14;100.00
28167;BME280;15455;53.376;-6.262;2023-05-01T02:20:48;101542.75;;;10.15;100.00
28167;BME280;15455;53.376;-6.262;2023-05-01T02:23:34;101541.88;;;10.13;100.00
28167;BME280;15455;53.376;-6.262;2023-05-01T02:26:24;101541.88;;;10.13;100.00
28167;BME280;15455;53.376;-6.262;2023-05-01T02:29:11;101534.91;;;10.13;100.00
28167;BME280;15455;53.376;-6.262;2023-05-01T02:31:58;101549.72;;;10.14;100.00
28167;BME280;15455;53.376;-6.262;2023-05-01T02:34:44;101541.00;;;10.14;100.00
28167;BME280;15455;53.376;-6.262;2023-05-01T02:37:30;101545.38;;;10.15;100.00
28167;BME280;15455;53.376;-6.262;2023-05-01T02:40:17;101544.50;;;10.13;100.00
28167;BME280;15455;53.376;-6.262;2023-05-01T02:43:05;101537.53;;;10.13;100.00
28167;BME280;15455;53.376;-6.262;2023-05-01T02:45:53;101542.75;;;10.13;100.00
28167;BME280;15455;53.376;-6.262;2023-05-01T02:48:40;101538.38;;;10.14;100.00
28167;BME280;15455;53.376;-6.262;2023-05-01T02:51:27;101541.00;;;10.14;100.00
28167;BME280;15455;53.376;-6.262;2023-05-01T02:54:13;101541.88;;;10.13;100.00
28167;BME280;15455;53.376;-6.262;2023-05-01T02:57:03;101543.56;;;10.09;100.00
28167;BME280;15455;53.376;-6.262;2023-05-01T02:59:49;101537.44;;;10.05;100.00
28167;BME280;15455;53.376;-6.262;2023-05-01T03:02:34;101540.88;;;10.03;100.00
28167;BME280;15455;53.376;-6.262;2023-05-01T03:05:20;101551.28;;;10.01;100.00
28167;BME280;15455;53.376;-6.262;2023-05-01T03:08:05;101546.06;;;10.00;100.00
28167;BME280;15455;53.376;-6.262;2023-05-01T03:10:51;101551.31;;;10.03;100.00
28167;BME280;15455;53.376;-6.262;2023-05-01T03:13:36;101540.91;;;10.04;100.00
28167;BME280;15455;53.376;-6.262;2023-05-01T03:16:22;101546.16;;;10.07;100.00
28167;BME280;15455;53.376;-6.262;2023-05-01T03:19:07;101547.03;;;10.09;100.00
28167;BME280;15455;53.376;-6.262;2023-05-01T03:21:53;101537.50;;;10.10;100.00
28167;BME280;15455;53.376;-6.262;2023-05-01T03:24:39;101541.88;;;10.11;100.00
28167;BME280;15455;53.376;-6.262;2023-05-01T03:27:24;101540.97;;;10.12;100.00
28167;BME280;15455;53.376;-6.262;2023-05-01T03:30:12;101538.38;;;10.14;100.00
28167;BME280;15455;53.376;-6.262;2023-05-01T03:32:59;101544.50;;;10.14;100.00
28167;BME280;15455;53.376;-6.262;2023-05-01T03:35:48;101541.91;;;10.14;100.00
28167;BME280;15455;53.376;-6.262;2023-05-01T03:38:42;101549.75;;;10.16;100.00
28167;BME280;15455;53.376;-6.262;2023-05-01T03:41:28;101537.56;;;10.16;100.00
28167;BME280;15455;53.376;-6.262;2023-05-01T03:44:29;101551.50;;;10.18;100.00
28167;BME280;15455;53.376;-6.262;2023-05-01T03:47:15;101552.38;;;10.17;100.00
28167;BME280;15455;53.376;-6.262;2023-05-01T03:50:00;101551.44;;;10.15;100.00
28167;BME280;15455;53.376;-6.262;2023-05-01T03:52:46;101559.25;;;10.14;100.00
28167;BME280;15455;53.376;-6.262;2023-05-01T03:55:32;101558.38;;;10.12;100.00
28167;BME280;15455;53.376;-6.262;2023-05-01T03:58:18;101558.34;;;10.10;100.00
28167;BME280;15455;53.376;-6.262;2023-05-01T04:01:07;101558.34;;;10.10;100.00
28167;BME280;15455;53.376;-6.262;2023-05-01T04:03:58;101570.47;;;10.08;100.00
28167;BME280;15455;53.376;-6.262;2023-05-01T04:06:47;101575.69;;;10.06;100.00
28167;BME280;15455;53.376;-6.262;2023-05-01T04:09:36;101584.38;;;10.05;100.00
28167;BME280;15455;53.376;-6.262;2023-05-01T04:12:21;101584.38;;;10.05;100.00
28167;BME280;15455;53.376;-6.262;2023-05-01T04:15:08;101588.72;;;10.05;100.00
28167;BME280;15455;53.376;-6.262;2023-05-01T04:17:54;101586.09;;;10.05;100.00
28167;BME280;15455;53.376;-6.262;2023-05-01T04:20:41;101597.44;;;10.05;100.00
28167;BME280;15455;53.376;-6.262;2023-05-01T04:23:27;101594.84;;;10.07;100.00
28167;BME280;15455;53.376;-6.262;2023-05-01T04:26:15;101594.84;;;10.07;100.00
28167;BME280;15455;53.376;-6.262;2023-05-01T04:29:02;101597.47;;;10.08;100.00
28167;BME280;15455;53.376;-6.262;2023-05-01T04:31:47;101608.75;;;10.09;100.00
28167;BME280;15455;53.376;-6.262;2023-05-01T04:34:32;101606.16;;;10.11;100.00
28167;BME280;15455;53.376;-6.262;2023-05-01T04:37:18;101609.69;;;10.11;100.00
28167;BME280;15455;53.376;-6.262;2023-05-01T04:40:04;101614.03;;;10.14;100.00
28167;BME280;15455;53.376;-6.262;2023-05-01T04:42:49;101614.91;;;10.13;100.00
28167;BME280;15455;53.376;-6.262;2023-05-01T04:45:36;101617.53;;;10.13;100.00
28167;BME280;15455;53.376;-6.262;2023-05-01T04:48:22;101622.75;;;10.13;100.00
28167;BME280;15455;53.376;-6.262;2023-05-01T04:51:07;101615.78;;;10.13;100.00
28167;BME280;15455;53.376;-6.262;2023-05-01T04:53:53;101624.50;;;10.15;100.00
28167;BME280;15455;53.376;-6.262;2023-05-01T04:56:43;101625.38;;;10.16;100.00
28167;BME280;15455;53.376;-6.262;2023-05-01T04:59:28;101619.28;;;10.17;100.00
28167;BME280;15455;53.376;-6.262;2023-05-01T05:02:13;101619.28;;;10.17;100.00
28167;BME280;15455;53.376;-6.262;2023-05-01T05:04:59;101626.25;;;10.18;100.00
28167;BME280;15455;53.376;-6.262;2023-05-01T05:07:44;101628.88;;;10.18;100.00
28167;BME280;15455;53.376;-6.262;2023-05-01T05:10:58;101635.00;;;10.20;100.00
28167;BME280;15455;53.376;-6.262;2023-05-01T05:13:55;101641.09;;;10.20;100.00
28167;BME280;15455;53.376;-6.262;2023-05-01T05:16:41;101638.50;;;10.22;100.00
28167;BME280;15455;53.376;-6.262;2023-05-01T05:19:27;101638.50;;;10.22;100.00
28167;BME280;15455;53.376;-6.262;2023-05-01T05:22:12;101636.78;;;10.24;100.00
28167;BME280;15455;53.376;-6.262;2023-05-01T05:25:18;101635.94;;;10.25;100.00
28167;BME280;15455;53.376;-6.262;2023-05-01T05:28:04;101630.72;;;10.26;100.00
28167;BME280;15455;53.376;-6.262;2023-05-01T05:30:50;101642.09;;;10.29;100.00
28167;BME280;15455;53.376;-6.262;2023-05-01T05:33:37;101641.22;;;10.31;100.00
28167;BME280;15455;53.376;-6.262;2023-05-01T05:36:24;101633.44;;;10.33;100.00
28167;BME280;15455;53.376;-6.262;2023-05-01T05:39:12;101646.56;;;10.37;100.00
28167;BME280;15455;53.376;-6.262;2023-05-01T05:41:58;101641.34;;;10.37;100.00
28167;BME280;15455;53.376;-6.262;2023-05-01T05:44:45;101633.56;;;10.42;100.00
28167;BME280;15455;53.376;-6.262;2023-05-01T05:47:30;101634.47;;;10.46;100.00
28167;BME280;15455;53.376;-6.262;2023-05-01T05:50:16;101641.50;;;10.50;100.00
28167;BME280;15455;53.376;-6.262;2023-05-01T05:53:03;101639.78;;;10.52;100.00
28167;BME280;15455;53.376;-6.262;2023-05-01T05:55:49;101634.59;;;10.53;100.00
28167;BME280;15455;53.376;-6.262;2023-05-01T05:58:34;101630.22;;;10.54;100.00
28167;BME280;15455;53.376;-6.262;2023-05-01T06:01:21;101638.06;;;10.54;100.00
28167;BME280;15455;53.376;-6.262;2023-05-01T06:04:06;101648.50;;;10.54;100.00
28167;BME280;15455;53.376;-6.262;2023-05-01T06:06:56;101649.44;;;10.57;100.00
28167;BME280;15455;53.376;-6.262;2023-05-01T06:09:42;101656.41;;;10.60;100.00
28167;BME280;15455;53.376;-6.262;2023-05-01T06:12:28;101651.25;;;10.63;100.00
28167;BME280;15455;53.376;-6.262;2023-05-01T06:15:14;101658.19;;;10.64;100.00
28167;BME280;15455;53.376;-6.262;2023-05-01T06:18:08;101664.34;;;10.68;100.00
28167;BME280;15455;53.376;-6.262;2023-05-01T06:20:53;101660.00;;;10.70;100.00
28167;BME280;15455;53.376;-6.262;2023-05-01T06:23:39;101666.13;;;10.70;100.00
28167;BME280;15455;53.376;-6.262;2023-05-01T06:26:50;101679.22;;;10.73;100.00
28167;BME280;15455;53.376;-6.262;2023-05-01T06:29:36;101676.59;;;10.73;100.00
28167;BME280;15455;53.376;-6.262;2023-05-01T06:32:22;101678.31;;;10.73;100.00
28167;BME280;15455;53.376;-6.262;2023-05-01T06:35:08;101679.19;;;10.72;100.00
28167;BME280;15455;53.376;-6.262;2023-05-01T06:37:53;101678.28;;;10.71;100.00
28167;BME280;15455;53.376;-6.262;2023-05-01T06:40:40;101680.03;;;10.71;100.00
28167;BME280;15455;53.376;-6.262;2023-05-01T06:43:25;101682.69;;;10.74;100.00
28167;BME280;15455;53.376;-6.262;2023-05-01T06:46:14;101690.56;;;10.78;100.00
28167;BME280;15455;53.376;-6.262;2023-05-01T06:49:00;101686.25;;;10.81;100.00
28167;BME280;15455;53.376;-6.262;2023-05-01T06:51:46;101688.06;;;10.85;100.00
28167;BME280;15455;53.376;-6.262;2023-05-01T06:54:31;101685.44;;;10.85;100.00
28167;BME280;15455;53.376;-6.262;2023-05-01T06:57:17;101684.56;;;10.87;100.00
28167;BME280;15455;53.376;-6.262;2023-05-01T07:00:02;101685.50;;;10.91;100.00
28167;BME280;15455;53.376;-6.262;2023-05-01T07:02:48;101689.91;;;10.97;100.00
28167;BME280;15455;53.376;-6.262;2023-05-01T07:05:34;101679.47;;;10.95;100.00
28167;BME280;15455;53.376;-6.262;2023-05-01T07:08:19;101689.09;;;11.01;100.00
28167;BME280;15455;53.376;-6.262;2023-05-01T07:11:05;101683.00;;;11.02;100.00
28167;BME280;15455;53.376;-6.262;2023-05-01T07:13:53;101680.50;;;11.12;100.00
28167;BME280;15455;53.376;-6.262;2023-05-01T07:16:38;101681.50;;;11.25;100.00
28167;BME280;15455;53.376;-6.262;2023-05-01T07:19:24;101678.09;;;11.33;100.00
28167;BME280;15455;53.376;-6.262;2023-05-01T07:22:10;101682.50;;;11.38;100.00
28167;BME280;15455;53.376;-6.262;2023-05-01T07:24:56;101677.31;;;11.44;100.00
28167;BME280;15455;53.376;-6.262;2023-05-01T07:27:41;101682.59;;;11.49;100.00
28167;BME280;15455;53.376;-6.262;2023-05-01T07:30:27;101673.06;;;11.57;100.00
28167;BME280;15455;53.376;-6.262;2023-05-01T07:33:14;101673.13;;;11.63;100.00
28167;BME280;15455;53.376;-6.262;2023-05-01T07:36:01;101679.25;;;11.67;100.00
28167;BME280;15455;53.376;-6.262;2023-05-01T07:38:47;101671.44;;;11.69;100.00
28167;BME280;15455;53.376;-6.262;2023-05-01T07:41:33;101668.72;;;11.59;100.00
28167;BME280;15455;53.376;-6.262;2023-05-01T07:44:19;101671.34;;;11.62;100.00
28167;BME280;15455;53.376;-6.262;2023-05-01T07:47:05;101671.41;;;11.67;100.00
28167;BME280;15455;53.376;-6.262;2023-05-01T07:49:50;101685.38;;;11.72;100.00
28167;BME280;15455;53.376;-6.262;2023-05-01T07:52:36;101675.72;;;11.63;100.00
28167;BME280;15455;53.376;-6.262;2023-05-01T07:55:23;101676.66;;;11.67;100.00
28167;BME280;15455;53.376;-6.262;2023-05-01T07:58:08;101671.44;;;11.69;100.00
28167;BME280;15455;53.376;-6.262;2023-05-01T08:00:54;101668.84;;;11.75;100.00
28167;BME280;15455;53.376;-6.262;2023-05-01T08:03:39;101678.50;;;11.85;100.00
28167;BME280;15455;53.376;-6.262;2023-05-01T08:06:25;101673.31;;;11.88;100.00
28167;BME280;15455;53.376;-6.262;2023-05-01T08:09:12;101682.06;;;11.90;100.00
28167;BME280;15455;53.376;-6.262;2023-05-01T08:11:57;101668.97;;;11.92;100.00
28167;BME280;15455;53.376;-6.262;2023-05-01T08:14:43;101669.81;;;11.86;100.00
28167;BME280;15455;53.376;-6.262;2023-05-01T08:17:28;101678.63;;;11.96;100.00
28167;BME280;15455;53.376;-6.262;2023-05-01T08:20:13;101676.81;;;11.90;100.00
28167;BME280;15455;53.376;-6.262;2023-05-01T08:22:59;101680.38;;;12.00;100.00
28167;BME280;15455;53.376;-6.262;2023-05-01T08:25:45;101676.94;;;12.04;100.00
28167;BME280;15455;53.376;-6.262;2023-05-01T08:28:36;101678.69;;;12.07;100.00
28167;BME280;15455;53.376;-6.262;2023-05-01T08:31:21;101681.38;;;12.18;100.00
28167;BME280;15455;53.376;-6.262;2023-05-01T08:34:09;101681.31;;;12.08;100.00
28167;BME280;15455;53.376;-6.262;2023-05-01T08:36:55;101678.66;;;12.01;100.00
28167;BME280;15455;53.376;-6.262;2023-05-01T08:39:41;101683.94;;;12.07;100.00
28167;BME280;15455;53.376;-6.262;2023-05-01T08:42:27;101687.50;;;12.16;100.00
28167;BME280;15455;53.376;-6.262;2023-05-01T08:45:17;101684.91;;;12.24;100.00
28167;BME280;15455;53.376;-6.262;2023-05-01T08:48:07;101690.97;;;12.19;100.00
28167;BME280;15455;53.376;-6.262;2023-05-01T08:50:55;101697.09;;;12.21;100.00
28167;BME280;15455;53.376;-6.262;2023-05-01T08:53:45;101695.41;;;12.32;100.00
28167;BME280;15455;53.376;-6.262;2023-05-01T08:56:35;101695.47;;;12.43;100.00
28167;BME280;15455;53.376;-6.262;2023-05-01T08:59:22;101697.25;;;12.51;100.00
28167;BME280;15455;53.376;-6.262;2023-05-01T09:02:09;101689.41;;;12.53;100.00
28167;BME280;15455;53.376;-6.262;2023-05-01T09:04:55;101683.34;;;12.65;100.00
28167;BME280;15455;53.376;-6.262;2023-05-01T09:07:42;101690.41;;;12.83;100.00
28167;BME280;15455;53.376;-6.262;2023-05-01T09:10:28;101679.94;;;12.84;100.00
28167;BME280;15455;53.376;-6.262;2023-05-01T09:13:17;101679.97;;;12.97;100.00
28167;BME280;15455;53.376;-6.262;2023-05-01T09:16:04;101686.97;;;12.98;100.00
28167;BME280;15455;53.376;-6.262;2023-05-01T09:18:50;101687.81;;;12.97;100.00
28167;BME280;15455;53.376;-6.262;2023-05-01T09:21:36;101684.31;;;12.85;100.00
28167;BME280;15455;53.376;-6.262;2023-05-01T09:24:23;101686.91;;;12.84;100.00
28167;BME280;15455;53.376;-6.262;2023-05-01T09:27:13;101696.53;;;12.91;100.00
28167;BME280;15455;53.376;-6.262;2023-05-01T09:29:59;101688.66;;;12.83;100.00
28167;BME280;15455;53.376;-6.262;2023-05-01T09:32:44;101694.81;;;13.01;100.00
28167;BME280;15455;53.376;-6.262;2023-05-01T09:35:30;101680.03;;;13.28;100.00
28167;BME280;15455;53.376;-6.262;2023-05-01T09:38:21;101682.72;;;13.55;100.00
28167;BME280;15455;53.376;-6.262;2023-05-01T09:41:07;101679.22;;;13.57;100.00
28167;BME280;15455;53.376;-6.262;2023-05-01T09:43:54;101680.09;;;13.48;100.00
28167;BME280;15455;53.376;-6.262;2023-05-01T09:46:40;101680.09;;;13.55;100.00
28167;BME280;15455;53.376;-6.262;2023-05-01T09:49:44;101680.09;;;13.74;100.00
28167;BME280;15455;53.376;-6.262;2023-05-01T09:52:32;101683.56;;;13.87;100.00
28167;BME280;15455;53.376;-6.262;2023-05-01T09:55:18;101687.06;;;13.66;100.00
28167;BME280;15455;53.376;-6.262;2023-05-01T09:58:04;101684.47;;;13.61;100.00
28167;BME280;15455;53.376;-6.262;2023-05-01T10:00:49;101691.47;;;13.64;100.00
28167;BME280;15455;53.376;-6.262;2023-05-01T10:03:36;101690.56;;;13.62;100.00
28167;BME280;15455;53.376;-6.262;2023-05-01T10:06:25;101692.34;;;13.55;100.00
28167;BME280;15455;53.376;-6.262;2023-05-01T10:09:26;101687.97;;;13.74;100.00
28167;BME280;15455;53.376;-6.262;2023-05-01T10:12:22;101687.94;;;13.88;100.00
28167;BME280;15455;53.376;-6.262;2023-05-01T10:15:08;101692.31;;;14.03;100.00
28167;BME280;15455;53.376;-6.262;2023-05-01T10:18:09;101697.53;;;14.20;100.00
28167;BME280;15455;53.376;-6.262;2023-05-01T10:20:57;101696.63;;;14.21;100.00
28167;BME280;15455;53.376;-6.262;2023-05-01T10:23:43;101686.13;;;14.24;100.00
28167;BME280;15455;53.376;-6.262;2023-05-01T10:26:29;101699.25;;;14.27;100.00
28167;BME280;15455;53.376;-6.262;2023-05-01T10:29:15;101691.34;;;14.25;100.00
28167;BME280;15455;53.376;-6.262;2023-05-01T10:32:04;101701.00;;;14.27;100.00
28167;BME280;15455;53.376;-6.262;2023-05-01T10:35:06;101691.44;;;14.04;100.00
28167;BME280;15455;53.376;-6.262;2023-05-01T10:38:05;101694.91;;;14.12;100.00
28167;BME280;15455;53.376;-6.262;2023-05-01T10:40:50;101694.84;;;14.32;100.00
28167;BME280;15455;53.376;-6.262;2023-05-01T10:43:36;101697.50;;;14.29;100.00
28167;BME280;15455;53.376;-6.262;2023-05-01T10:46:25;101689.56;;;14.46;100.00
28167;BME280;15455;53.376;-6.262;2023-05-01T10:49:11;101699.16;;;14.58;100.00
28167;BME280;15455;53.376;-6.262;2023-05-01T10:54:42;101700.03;;;14.62;100.00
28167;BME280;15455;53.376;-6.262;2023-05-01T10:57:41;101697.41;;;14.69;100.00
28167;BME280;15455;53.376;-6.262;2023-05-01T11:00:28;101704.34;;;14.81;100.00
28167;BME280;15455;53.376;-6.262;2023-05-01T11:06:06;101694.69;;;14.82;100.00
28167;BME280;15455;53.376;-6.262;2023-05-01T11:08:51;101699.84;;;15.03;100.00
28167;BME280;15455;53.376;-6.262;2023-05-01T11:11:44;101698.91;;;15.18;100.00
28167;BME280;15455;53.376;-6.262;2023-05-01T11:23:16;101711.91;;;15.37;100.00
28167;BME280;15455;53.376;-6.262;2023-05-01T11:26:02;101710.97;;;15.44;100.00
28167;BME280;15455;53.376;-6.262;2023-05-01T11:28:53;101711.75;;;15.61;100.00
28167;BME280;15455;53.376;-6.262;2023-05-01T11:31:40;101713.41;;;15.73;100.00
28167;BME280;15455;53.376;-6.262;2023-05-01T11:34:25;101717.78;;;15.71;100.00
28167;BME280;15455;53.376;-6.262;2023-05-01T11:37:11;101716.00;;;15.76;100.00
28167;BME280;15455;53.376;-6.262;2023-05-01T11:39:56;101712.50;;;15.71;100.00
28167;BME280;15455;53.376;-6.262;2023-05-01T11:42:42;101710.78;;;15.72;100.00
28167;BME280;15455;53.376;-6.262;2023-05-01T11:45:28;101719.59;;;15.65;100.00
28167;BME280;15455;53.376;-6.262;2023-05-01T11:48:14;101712.78;;;15.39;100.00
28167;BME280;15455;53.376;-6.262;2023-05-01T11:51:11;101710.06;;;15.48;100.00
28167;BME280;15455;53.376;-6.262;2023-05-01T11:54:00;101716.13;;;15.58;100.00
28167;BME280;15455;53.376;-6.262;2023-05-01T11:56:45;101715.28;;;15.57;100.00
28167;BME280;15455;53.376;-6.262;2023-05-01T11:59:31;101717.81;;;15.68;100.00
28167;BME280;15455;53.376;-6.262;2023-05-01T12:02:18;101717.72;;;15.84;100.00
28167;BME280;15455;53.376;-6.262;2023-05-01T12:05:15;101712.28;;;16.02;100.00
28167;BME280;15455;53.376;-6.262;2023-05-01T12:10:58;101709.38;;;16.28;100.00
28167;BME280;15455;53.376;-6.262;2023-05-01T12:13:45;101710.09;;;16.43;100.00
28167;BME280;15455;53.376;-6.262;2023-05-01T12:16:32;101711.81;;;16.48;100.00
28167;BME280;15455;53.376;-6.262;2023-05-01T12:19:18;101708.84;;;16.75;100.00
28167;BME280;15455;53.376;-6.262;2023-05-01T12:22:07;101699.09;;;16.81;100.00
28167;BME280;15455;53.376;-6.262;2023-05-01T12:24:52;101703.19;;;17.04;100.00
28167;BME280;15455;53.376;-6.262;2023-05-01T12:27:42;101700.16;;;17.33;100.00
28167;BME280;15455;53.376;-6.262;2023-05-01T12:30:29;101706.47;;;17.78;100.00
28167;BME280;15455;53.376;-6.262;2023-05-01T12:33:20;101701.09;;;18.32;100.00
28167;BME280;15455;53.376;-6.262;2023-05-01T12:36:09;101702.09;;;18.72;100.00
28167;BME280;15455;53.376;-6.262;2023-05-01T12:39:00;101703.00;;;18.69;100.00
28167;BME280;15455;53.376;-6.262;2023-05-01T12:41:47;101699.00;;;18.92;100.00
28167;BME280;15455;53.376;-6.262;2023-05-01T12:44:33;101708.34;;;18.68;100.00
28167;BME280;15455;53.376;-6.262;2023-05-01T12:47:19;101698.34;;;18.38;100.00
28167;BME280;15455;53.376;-6.262;2023-05-01T12:50:05;101703.31;;;18.09;100.00
28167;BME280;15455;53.376;-6.262;2023-05-01T12:52:52;101701.13;;;17.81;100.00
28167;BME280;15455;53.376;-6.262;2023-05-01T12:55:45;101696.84;;;17.75;100.00
28167;BME280;15455;53.376;-6.262;2023-05-01T12:58:37;101699.16;;;17.94;100.00
28167;BME280;15455;53.376;-6.262;2023-05-01T13:01:26;101703.03;;;18.22;100.00
28167;BME280;15455;53.376;-6.262;2023-05-01T13:04:19;101710.34;;;18.08;100.00
28167;BME280;15455;53.376;-6.262;2023-05-01T13:07:12;101706.34;;;17.85;100.00
28167;BME280;15455;53.376;-6.262;2023-05-01T13:09:59;101712.28;;;17.45;100.00
28167;BME280;15455;53.376;-6.262;2023-05-01T13:12:45;101713.53;;;17.19;100.00
28167;BME280;15455;53.376;-6.262;2023-05-01T13:15:31;101713.03;;;16.94;100.00
28167;BME280;15455;53.376;-6.262;2023-05-01T13:18:17;101714.13;;;16.73;100.00
28167;BME280;15455;53.376;-6.262;2023-05-01T13:21:07;101708.00;;;16.70;100.00
28167;BME280;15455;53.376;-6.262;2023-05-01T13:23:57;101713.31;;;16.68;100.00
28167;BME280;15455;53.376;-6.262;2023-05-01T13:26:44;101710.66;;;16.70;100.00
28167;BME280;15455;53.376;-6.262;2023-05-01T13:29:30;101713.22;;;16.76;100.00
28167;BME280;15455;53.376;-6.262;2023-05-01T13:32:16;101708.44;;;17.06;100.00
28167;BME280;15455;53.376;-6.262;2023-05-01T13:35:02;101705.41;;;17.90;100.00
28167;BME280;15455;53.376;-6.262;2023-05-01T13:37:49;101713.06;;;18.52;100.00
28167;BME280;15455;53.376;-6.262;2023-05-01T13:40:35;101711.16;;;19.02;100.00
28167;BME280;15455;53.376;-6.262;2023-05-01T13:43:21;101713.91;;;19.71;100.00
28167;BME280;15455;53.376;-6.262;2023-05-01T13:46:10;101708.91;;;19.97;100.00
28167;BME280;15455;53.376;-6.262;2023-05-01T13:49:01;101711.97;;;20.14;100.00
28167;BME280;15455;53.376;-6.262;2023-05-01T13:51:48;101711.72;;;19.89;100.00
28167;BME280;15455;53.376;-6.262;2023-05-01T13:54:39;101723.41;;;19.82;100.00
28167;BME280;15455;53.376;-6.262;2023-05-01T13:57:30;101726.97;;;19.81;100.00
28167;BME280;15455;53.376;-6.262;2023-05-01T14:00:16;101720.75;;;19.83;100.00
28167;BME280;15455;53.376;-6.262;2023-05-01T14:03:02;101727.06;;;19.74;100.00
28167;BME280;15455;53.376;-6.262;2023-05-01T14:05:49;101724.38;;;19.41;100.00
28167;BME280;15455;53.376;-6.262;2023-05-01T14:08:35;101729.31;;;19.18;100.00
28167;BME280;15455;53.376;-6.262;2023-05-01T14:11:21;101722.84;;;18.90;100.00
28167;BME280;15455;53.376;-6.262;2023-05-01T14:14:06;101717.88;;;18.75;100.00
28167;BME280;15455;53.376;-6.262;2023-05-01T14:16:52;101726.47;;;19.27;100.00
28167;BME280;15455;53.376;-6.262;2023-05-01T14:19:38;101724.38;;;19.77;100.00
28167;BME280;15455;53.376;-6.262;2023-05-01T14:22:28;101721.13;;;20.35;100.00
28167;BME280;15455;53.376;-6.262;2023-05-01T14:25:25;101730.00;;;20.64;100.00
28167;BME280;15455;53.376;-6.262;2023-05-01T14:28:11;101723.97;;;20.27;100.00
28167;BME280;15455;53.376;-6.262;2023-05-01T14:30:56;101732.91;;;19.90;100.00
28167;BME280;15455;53.376;-6.262;2023-05-01T14:33:42;101733.91;;;19.49;100.00
28167;BME280;15455;53.376;-6.262;2023-05-01T14:36:28;101728.69;;;19.06;100.00
28167;BME280;15455;53.376;-6.262;2023-05-01T14:39:18;101722.38;;;18.70;100.00
28167;BME280;15455;53.376;-6.262;2023-05-01T14:42:04;101723.09;;;18.34;100.00